createdAt,value
2018-11-02T00:01:28.306Z,19.33
2018-11-02T00:03:57.236Z,19.40
2018-11-02T00:06:25.648Z,18.43
2018-11-02T00:08:53.938Z,17.37
2018-11-02T00:11:22.259Z,18.10
2018-11-02T00:13:50.592Z,17.87
2018-11-02T00:16:19.185Z,17.47
2018-11-02T00:18:47.512Z,17.80
2018-11-02T00:21:15.843Z,17.40
2018-11-02T00:23:44.192Z,17.03
2018-11-02T00:26:12.531Z,17.20
2018-11-02T00:28:40.277Z,16.80
2018-11-02T00:31:08.606Z,18.17
2018-11-02T00:33:37.522Z,16.33
2018-11-02T00:36:05.854Z,17.37
2018-11-02T00:38:34.188Z,16.60
2018-11-02T00:41:02.570Z,17.37
2018-11-02T00:43:31.130Z,15.27
2018-11-02T00:45:59.459Z,15.87
2018-11-02T00:48:27.208Z,15.77
2018-11-02T00:50:55.532Z,16.70
2018-11-02T00:53:23.859Z,15.67
2018-11-02T00:55:52.238Z,15.03
2018-11-02T00:58:21.143Z,14.17
2018-11-02T01:00:49.475Z,15.67
2018-11-02T01:03:17.245Z,15.20
2018-11-02T01:05:46.216Z,16.33
2018-11-02T01:08:14.568Z,15.27
2018-11-02T01:10:42.318Z,14.20
2018-11-02T01:13:11.254Z,14.57
2018-11-02T01:15:39.000Z,14.43
2018-11-02T01:18:07.920Z,14.93
2018-11-02T01:20:35.661Z,14.63
2018-11-02T01:23:03.996Z,14.47
2018-11-02T01:25:32.322Z,14.93
2018-11-02T01:28:01.241Z,13.90
2018-11-02T01:30:28.989Z,13.23
2018-11-02T01:32:57.911Z,13.83
2018-11-02T01:35:25.667Z,14.00
2018-11-02T01:37:54.583Z,14.30
2018-11-02T01:40:22.906Z,14.70
2018-11-02T01:42:51.238Z,14.10
2018-11-02T01:45:19.392Z,13.20
2018-11-02T01:47:47.730Z,14.07
2018-11-02T01:50:16.634Z,14.20
2018-11-02T01:52:44.405Z,13.60
2018-11-02T01:55:13.309Z,14.13
2018-11-02T01:57:41.058Z,12.53
2018-11-02T02:00:09.974Z,13.60
2018-11-02T02:02:38.310Z,13.57
2018-11-02T02:05:06.064Z,12.47
2018-11-02T02:07:34.396Z,12.57
2018-11-02T02:10:03.317Z,13.47
2018-11-02T02:12:31.070Z,12.33
2018-11-02T02:14:59.994Z,11.97
2018-11-02T02:17:27.740Z,11.27
2018-11-02T02:19:56.651Z,11.97
2018-11-02T02:22:24.989Z,11.07
2018-11-02T02:24:52.743Z,11.20
2018-11-02T02:27:21.065Z,12.07
2018-11-02T02:29:49.977Z,11.47
2018-11-02T02:32:17.724Z,11.47
2018-11-02T02:34:46.632Z,11.07
2018-11-02T02:37:14.962Z,11.87
2018-11-02T02:39:43.300Z,10.93
2018-11-02T02:42:12.451Z,10.93
2018-11-02T02:44:40.789Z,11.60
2018-11-02T02:47:09.114Z,10.57
2018-11-02T02:49:37.454Z,10.77
2018-11-02T02:52:05.769Z,12.00
2018-11-02T02:54:34.134Z,11.60
2018-11-02T02:57:02.491Z,11.20
2018-11-02T02:59:30.216Z,10.97
2018-11-02T03:01:58.552Z,10.90
2018-11-02T03:04:26.900Z,11.87
2018-11-02T03:06:55.827Z,10.77
2018-11-02T03:09:24.148Z,10.33
2018-11-02T03:11:52.483Z,10.70
2018-11-02T03:14:20.248Z,11.53
2018-11-02T03:16:49.281Z,11.17
2018-11-02T03:19:17.609Z,10.63
2018-11-02T03:21:45.941Z,11.27
2018-11-02T03:24:14.300Z,11.37
2018-11-02T03:26:42.620Z,11.03
2018-11-02T03:29:10.396Z,11.13
2018-11-02T03:31:39.311Z,11.60
2018-11-02T03:34:07.093Z,10.90
2018-11-02T03:36:35.400Z,10.10
2018-11-02T03:39:04.322Z,10.73
2018-11-02T03:41:32.650Z,9.90
2018-11-02T03:44:00.985Z,10.53
2018-11-02T03:46:28.757Z,10.67
2018-11-02T03:48:57.347Z,10.37
2018-11-02T03:51:25.677Z,9.63
2018-11-02T03:53:54.587Z,9.27
2018-11-02T03:56:22.914Z,10.13
2018-11-02T03:58:50.687Z,9.93
2018-11-02T04:01:19.600Z,9.70
2018-11-02T04:03:47.939Z,10.37
2018-11-02T04:06:16.262Z,9.73
2018-11-02T04:08:44.602Z,9.80
2018-11-02T04:11:12.368Z,10.37
2018-11-02T04:13:41.317Z,10.10
2018-11-02T04:16:09.614Z,10.50
2018-11-02T04:18:37.945Z,10.20
2018-11-02T04:21:05.705Z,9.73
2018-11-02T04:23:34.016Z,10.77
2018-11-02T04:26:02.939Z,9.90
2018-11-02T04:28:31.274Z,9.87
2018-11-02T04:30:59.118Z,9.80
2018-11-02T04:33:27.342Z,10.43
2018-11-02T04:35:56.263Z,10.70
2018-11-02T04:38:24.475Z,10.50
2018-11-02T04:40:52.944Z,10.40
2018-11-02T04:43:20.703Z,9.87
2018-11-02T04:45:49.609Z,10.40
2018-11-02T04:48:17.358Z,10.87
2018-11-02T04:50:46.310Z,9.77
2018-11-02T04:53:14.076Z,9.70
2018-11-02T04:55:42.396Z,9.97
2018-11-02T04:58:10.743Z,9.60
2018-11-02T05:00:39.669Z,10.90
2018-11-02T05:03:07.985Z,9.63
2018-11-02T05:05:36.320Z,29.43
2018-11-02T05:08:04.061Z,12.47
2018-11-02T05:10:32.402Z,9.23
2018-11-02T05:13:00.733Z,9.80
2018-11-02T05:15:29.069Z,10.13
2018-11-02T05:17:57.409Z,9.90
2018-11-02T05:20:26.328Z,10.33
2018-11-02T05:22:54.642Z,9.77
2018-11-02T05:25:22.980Z,9.67
2018-11-02T05:27:50.723Z,9.40
2018-11-02T05:30:19.631Z,9.60
2018-11-02T05:32:47.967Z,9.37
2018-11-02T05:35:16.296Z,9.03
2018-11-02T05:37:44.637Z,8.77
2018-11-02T05:40:12.973Z,8.90
2018-11-02T05:42:41.301Z,10.50
2018-11-02T05:45:09.630Z,9.10
2018-11-02T05:47:38.205Z,8.60
2018-11-02T05:50:06.528Z,8.70
2018-11-02T05:52:34.284Z,9.50
2018-11-02T05:55:02.629Z,9.00
2018-11-02T05:57:30.958Z,8.90
2018-11-02T05:59:59.305Z,8.93
2018-11-02T06:02:27.632Z,9.17
2018-11-02T06:04:55.974Z,8.80
2018-11-02T06:07:25.809Z,8.17
2018-11-02T06:09:53.554Z,9.00
2018-11-02T06:12:22.520Z,8.30
2018-11-02T06:14:50.238Z,7.93
2018-11-02T06:17:19.371Z,10.77
2018-11-02T06:19:47.142Z,7.90
2018-11-02T06:22:16.059Z,8.10
2018-11-02T06:24:44.400Z,7.43
2018-11-02T06:27:12.142Z,9.90
2018-11-02T06:29:40.533Z,7.50
2018-11-02T06:32:09.380Z,8.17
2018-11-02T06:34:37.128Z,9.90
2018-11-02T06:37:06.047Z,9.37
2018-11-02T06:39:33.792Z,64.43
2018-11-02T06:42:02.173Z,23.87
2018-11-02T06:44:30.453Z,11.33
2018-11-02T06:46:58.799Z,7.90
2018-11-02T06:49:27.688Z,6.40
2018-11-02T06:51:55.461Z,6.30
2018-11-02T06:54:23.761Z,5.50
2018-11-02T06:56:52.091Z,6.00
2018-11-02T06:59:21.061Z,6.47
2018-11-02T07:01:49.568Z,6.77
2018-11-02T07:04:17.909Z,14.07
2018-11-02T07:06:46.231Z,6.60
2018-11-02T07:09:13.971Z,5.50
2018-11-02T07:11:42.888Z,5.97
2018-11-02T07:14:10.633Z,5.90
2018-11-02T07:16:38.961Z,6.10
2018-11-02T07:19:07.863Z,5.80
2018-11-02T07:21:35.627Z,6.30
2018-11-02T07:24:03.931Z,7.27
2018-11-02T07:26:32.834Z,5.93
2018-11-02T07:29:01.175Z,9.03
2018-11-02T07:31:29.498Z,6.40
2018-11-02T07:33:57.525Z,7.37
2018-11-02T07:36:25.569Z,7.60
2018-11-02T07:38:53.898Z,10.93
2018-11-02T07:41:23.028Z,6.70
2018-11-02T07:43:51.150Z,6.70
2018-11-02T07:46:19.099Z,6.00
2018-11-02T07:48:47.201Z,6.53
2018-11-02T07:51:16.161Z,5.80
2018-11-02T07:53:44.483Z,5.40
2018-11-02T07:56:12.798Z,6.30
2018-11-02T07:58:41.118Z,5.70
2018-11-02T08:01:09.435Z,5.50
2018-11-02T08:03:37.177Z,5.67
2018-11-02T08:06:06.863Z,5.67
2018-11-02T08:08:34.609Z,17.83
2018-11-02T08:11:03.516Z,6.53
2018-11-02T08:13:31.842Z,5.60
2018-11-02T08:15:59.598Z,5.83
2018-11-02T08:18:27.922Z,5.87
2018-11-02T08:20:56.836Z,15.97
2018-11-02T08:23:25.202Z,10.73
2018-11-02T08:25:52.971Z,6.93
2018-11-02T08:28:21.871Z,5.30
2018-11-02T08:30:50.200Z,5.63
2018-11-02T08:33:18.544Z,5.53
2018-11-02T08:35:46.277Z,5.87
2018-11-02T08:38:15.185Z,5.37
2018-11-02T08:40:42.922Z,5.77
2018-11-02T08:43:11.260Z,5.00
2018-11-02T08:45:39.576Z,5.30
2018-11-02T08:48:07.894Z,5.30
2018-11-02T08:50:36.225Z,5.40
2018-11-02T08:53:05.162Z,6.30
2018-11-02T08:55:32.904Z,8.83
2018-11-02T08:58:02.186Z,15.13
2018-11-02T09:00:30.175Z,6.70
2018-11-02T09:02:57.920Z,5.10
2018-11-02T09:05:26.244Z,4.80
2018-11-02T09:07:54.571Z,7.30
2018-11-02T09:10:23.483Z,11.40
2018-11-02T09:12:51.662Z,36.70
2018-11-02T09:15:20.226Z,5.80
2018-11-02T09:17:48.591Z,5.13
2018-11-02T09:20:16.884Z,4.93
2018-11-02T09:22:45.212Z,4.73
2018-11-02T09:25:12.962Z,4.37
2018-11-02T09:27:41.906Z,4.83
2018-11-02T09:30:10.207Z,4.20
2018-11-02T09:32:38.529Z,4.33
2018-11-02T09:35:06.268Z,4.37
2018-11-02T09:37:35.177Z,4.57
2018-11-02T09:40:02.936Z,4.57
2018-11-02T09:42:31.931Z,6.30
2018-11-02T09:45:00.171Z,5.20
2018-11-02T09:47:28.834Z,3.90
2018-11-02T09:49:57.164Z,3.60
2018-11-02T09:52:25.487Z,4.00
2018-11-02T09:54:53.803Z,3.73
2018-11-02T09:57:22.125Z,4.30
2018-11-02T09:59:50.434Z,4.37
2018-11-02T10:02:18.769Z,4.33
2018-11-02T10:04:47.094Z,3.63
2018-11-02T10:07:15.656Z,4.33
2018-11-02T10:09:44.695Z,47.33
2018-11-02T10:12:13.575Z,8.43
2018-11-02T10:14:41.897Z,3.97
2018-11-02T10:17:09.629Z,3.43
2018-11-02T10:19:38.532Z,3.27
2018-11-02T10:22:06.860Z,3.07
2018-11-02T10:24:34.606Z,3.70
2018-11-02T10:27:03.539Z,3.20
2018-11-02T10:29:31.844Z,3.30
2018-11-02T10:31:59.592Z,3.40
2018-11-02T10:34:28.508Z,9.77
2018-11-02T10:36:56.835Z,5.50
2018-11-02T10:39:25.882Z,19.53
2018-11-02T10:41:54.216Z,29.97
2018-11-02T10:44:22.585Z,4.83
2018-11-02T10:46:51.847Z,4.10
2018-11-02T10:49:18.874Z,3.17
2018-11-02T10:51:47.735Z,3.83
2018-11-02T10:54:15.512Z,3.50
2018-11-02T10:56:43.836Z,3.50
2018-11-02T10:59:12.717Z,3.87
2018-11-02T11:01:45.038Z,3.50
2018-11-02T11:04:12.776Z,3.70
2018-11-02T11:06:41.679Z,2.93
2018-11-02T11:09:10.024Z,3.77
2018-11-02T11:11:37.855Z,3.20
2018-11-02T11:14:06.113Z,3.33
2018-11-02T11:16:35.039Z,3.53
2018-11-02T11:19:03.349Z,4.30
2018-11-02T11:21:31.724Z,4.03
2018-11-02T11:24:00.508Z,6.90
2018-11-02T11:26:28.609Z,3.50
2018-11-02T11:28:56.908Z,3.70
2018-11-02T11:31:25.227Z,4.43
2018-11-02T11:33:53.543Z,4.27
2018-11-02T11:36:21.869Z,4.13
2018-11-02T11:38:50.407Z,3.73
2018-11-02T11:41:19.325Z,3.83
2018-11-02T11:43:47.653Z,5.10
2018-11-02T11:46:15.400Z,4.20
2018-11-02T11:48:44.315Z,4.00
2018-11-02T11:51:13.591Z,4.30
2018-11-02T11:53:42.566Z,9.50
2018-11-02T11:56:11.244Z,4.23
2018-11-02T11:58:38.981Z,5.10
2018-11-02T12:01:07.310Z,4.27
2018-11-02T12:03:35.639Z,4.57
2018-11-02T12:06:04.544Z,3.93
2018-11-02T12:08:32.287Z,4.80
2018-11-02T12:11:01.181Z,4.50
2018-11-02T12:13:29.516Z,4.53
2018-11-02T12:15:57.323Z,6.17
2018-11-02T12:18:26.159Z,3.90
2018-11-02T12:20:53.903Z,6.70
2018-11-02T12:23:23.049Z,5.70
2018-11-02T12:25:50.756Z,4.30
2018-11-02T12:28:19.705Z,3.80
2018-11-02T12:30:47.971Z,4.17
2018-11-02T12:33:16.283Z,3.77
2018-11-02T12:35:44.031Z,3.87
2018-11-02T12:38:12.936Z,5.13
2018-11-02T12:40:41.317Z,4.37
2018-11-02T12:43:09.675Z,4.60
2018-11-02T12:45:37.393Z,4.73
2018-11-02T12:48:06.455Z,4.77
2018-11-02T12:50:34.748Z,4.00
2018-11-02T12:53:02.947Z,5.13
2018-11-02T12:55:31.273Z,5.10
2018-11-02T12:57:59.608Z,4.90
2018-11-02T13:00:27.935Z,6.77
2018-11-02T13:02:56.314Z,7.60
2018-11-02T13:05:24.592Z,5.63
2018-11-02T13:07:52.327Z,5.80
2018-11-02T13:10:20.652Z,6.63
2018-11-02T13:12:49.550Z,7.93
2018-11-02T13:15:17.290Z,6.20
2018-11-02T13:17:45.613Z,6.40
2018-11-02T13:20:14.548Z,6.93
2018-11-02T13:22:44.141Z,7.33
2018-11-02T13:25:11.607Z,7.23
2018-11-02T13:27:39.973Z,7.30
2018-11-02T13:30:08.280Z,6.00
2018-11-02T13:32:37.169Z,6.60
2018-11-02T13:35:05.499Z,6.27
2018-11-02T13:37:33.248Z,9.03
2018-11-02T13:40:02.432Z,8.50
2018-11-02T13:42:30.174Z,6.20
2018-11-02T13:44:59.439Z,10.93
2018-11-02T13:47:27.983Z,6.83
2018-11-02T13:49:56.078Z,8.73
2018-11-02T13:52:24.403Z,8.77
2018-11-02T13:54:52.376Z,11.10
2018-11-02T13:57:20.489Z,15.70
2018-11-02T13:59:49.422Z,8.07
2018-11-02T14:02:17.137Z,12.67
2018-11-02T14:04:46.051Z,10.33
2018-11-02T14:07:13.810Z,14.20
2018-11-02T14:09:42.725Z,11.20
2018-11-02T14:12:10.468Z,10.10
2018-11-02T14:14:40.615Z,42.23
2018-11-02T14:17:07.979Z,68.63
2018-11-02T14:19:36.323Z,29.77
2018-11-02T14:22:04.086Z,13.60
2018-11-02T14:24:32.404Z,18.20
2018-11-02T14:27:01.323Z,11.40
2018-11-02T14:29:29.676Z,25.90
2018-11-02T14:31:57.986Z,9.17
2018-11-02T14:34:25.737Z,12.60
2018-11-02T14:36:54.065Z,10.40
2018-11-02T14:39:22.398Z,10.03
2018-11-02T14:41:50.738Z,15.57
2018-11-02T14:44:19.649Z,20.30
2018-11-02T14:46:47.414Z,20.83
2018-11-02T14:49:16.320Z,9.70
2018-11-02T14:51:44.647Z,61.37
2018-11-02T14:54:12.406Z,50.57
2018-11-02T14:56:41.318Z,14.97
2018-11-02T14:59:09.574Z,16.47
2018-11-02T15:01:39.010Z,18.03
2018-11-02T15:04:06.763Z,19.57
2018-11-02T15:06:35.678Z,20.00
2018-11-02T15:09:03.436Z,38.60
2018-11-02T15:11:31.839Z,26.20
2018-11-02T15:14:01.079Z,21.17
2018-11-02T15:16:29.425Z,30.93
2018-11-02T15:18:57.767Z,17.83
2018-11-02T15:21:26.661Z,22.93
2018-11-02T15:23:54.409Z,20.17
2018-11-02T15:26:22.797Z,26.07
2018-11-02T15:28:51.655Z,27.40
2018-11-02T15:31:20.004Z,36.27
2018-11-02T15:33:48.333Z,29.80
2018-11-02T15:36:16.093Z,34.10
2018-11-02T15:38:44.541Z,38.63
2018-11-02T15:41:13.633Z,30.90
2018-11-02T15:43:41.976Z,25.47
2018-11-02T15:46:09.755Z,38.77
2018-11-02T15:48:38.059Z,26.30
2018-11-02T15:51:06.992Z,23.67
2018-11-02T15:53:35.330Z,28.67
2018-11-02T15:56:03.649Z,21.50
2018-11-02T15:58:31.984Z,21.23
2018-11-02T16:01:00.315Z,30.53
2018-11-02T16:03:28.664Z,28.77
2018-11-02T16:05:56.985Z,29.77
2018-11-02T16:08:25.318Z,32.53
2018-11-02T16:10:53.641Z,31.40
2018-11-02T16:13:22.773Z,31.17
2018-11-02T16:15:51.111Z,31.10
2018-11-02T16:18:19.442Z,29.93
2018-11-02T16:20:47.183Z,28.30
2018-11-02T16:23:16.106Z,27.57
2018-11-02T16:25:44.445Z,28.13
2018-11-02T16:28:12.789Z,33.20
2018-11-02T16:30:41.126Z,50.27
2018-11-02T16:33:09.481Z,46.83
2018-11-02T16:35:37.233Z,50.67
2018-11-02T16:38:06.382Z,52.87
2018-11-02T16:40:33.902Z,81.43
2018-11-02T16:43:02.825Z,88.17
2018-11-02T16:45:31.161Z,54.80
2018-11-02T16:47:58.976Z,50.50
2018-11-02T16:50:27.266Z,40.73
2018-11-02T16:52:56.150Z,38.10
2018-11-02T16:55:24.484Z,83.03
2018-11-02T16:57:52.943Z,123.10
2018-11-02T17:00:21.174Z,62.67
2018-11-02T17:02:49.516Z,58.77
2018-11-02T17:05:17.866Z,52.23
2018-11-02T17:07:46.227Z,51.20
2018-11-02T17:10:14.576Z,41.77
2018-11-02T17:12:43.205Z,42.37
2018-11-02T17:15:11.065Z,44.50
2018-11-02T17:17:39.877Z,42.87
2018-11-02T17:20:08.228Z,41.33
2018-11-02T17:22:36.794Z,42.27
2018-11-02T17:25:04.915Z,40.07
2018-11-02T17:27:33.266Z,40.97
2018-11-02T17:30:01.686Z,42.73
2018-11-02T17:32:29.441Z,51.73
2018-11-02T17:34:58.373Z,74.47
2018-11-02T17:37:26.715Z,70.33
2018-11-02T17:39:55.374Z,70.00
2018-11-02T17:42:23.734Z,112.17
2018-11-02T17:44:52.090Z,149.20
2018-11-02T17:47:19.860Z,115.23
2018-11-02T17:49:48.788Z,74.03
2018-11-02T17:52:17.134Z,56.93
2018-11-02T17:54:44.886Z,54.20
2018-11-02T17:57:13.800Z,56.40
2018-11-02T17:59:41.585Z,59.37
2018-11-02T18:02:10.519Z,68.23
2018-11-02T18:04:38.864Z,60.90
2018-11-02T18:07:07.219Z,70.10
2018-11-02T18:09:35.564Z,81.00
2018-11-02T18:12:03.956Z,58.00
2018-11-02T18:14:32.299Z,50.87
2018-11-02T18:17:00.591Z,48.97
2018-11-02T18:19:28.946Z,48.53
2018-11-02T18:21:57.336Z,51.67
2018-11-02T18:24:25.659Z,56.53
2018-11-02T18:26:53.966Z,57.83
2018-11-02T18:29:22.343Z,67.33
2018-11-02T18:31:50.906Z,71.20
2018-11-02T18:34:19.231Z,62.83
2018-11-02T18:36:47.594Z,67.80
2018-11-02T18:39:17.114Z,73.57
2018-11-02T18:41:44.909Z,104.13
2018-11-02T18:44:14.508Z,83.17
2018-11-02T18:46:42.298Z,76.57
2018-11-02T18:49:11.214Z,67.70
2018-11-02T18:51:39.566Z,71.10
2018-11-02T18:54:29.231Z,68.03
2018-11-02T18:56:53.167Z,71.57
2018-11-02T18:59:21.797Z,87.17
2018-11-02T19:01:50.229Z,109.30
2018-11-02T19:04:18.573Z,101.03
2018-11-02T19:06:46.333Z,127.20
2018-11-02T19:09:15.600Z,137.63
2018-11-02T19:11:44.309Z,142.97
2018-11-02T19:14:12.646Z,120.13
2018-11-02T19:16:40.430Z,113.10
2018-11-02T19:19:09.357Z,105.30
2018-11-02T19:21:37.897Z,104.67
2018-11-02T19:24:06.196Z,87.07
2018-11-02T19:26:34.549Z,92.40
2018-11-02T19:29:03.079Z,100.10
2018-11-02T19:31:30.829Z,98.43
2018-11-02T19:33:59.774Z,85.37
2018-11-02T19:36:28.363Z,81.67
2018-11-02T19:38:56.995Z,72.20
2018-11-02T19:41:24.737Z,70.37
2018-11-02T19:43:53.728Z,81.93
2018-11-02T19:46:22.069Z,97.37
2018-11-02T19:48:50.435Z,77.53
2018-11-02T19:51:21.958Z,88.97
2018-11-02T19:53:50.306Z,82.60
2018-11-02T19:56:18.064Z,71.33
2018-11-02T19:58:46.987Z,89.93
2018-11-02T20:01:15.359Z,85.80
2018-11-02T20:03:43.698Z,90.40
2018-11-02T20:06:12.045Z,90.60
2018-11-02T20:08:40.401Z,90.03
2018-11-02T20:11:08.859Z,92.47
2018-11-02T20:13:37.373Z,104.57
2018-11-02T20:16:05.813Z,104.03
2018-11-02T20:18:34.258Z,111.57
2018-11-02T20:21:02.844Z,96.10
2018-11-02T20:23:31.189Z,98.37
2018-11-02T20:25:59.001Z,96.63
2018-11-02T20:28:29.202Z,90.47
2018-11-02T20:30:57.882Z,61.27
2018-11-02T20:33:26.584Z,49.77
2018-11-02T20:35:54.950Z,60.50
2018-11-02T20:38:23.955Z,54.80
2018-11-02T20:40:52.119Z,56.27
2018-11-02T20:43:20.447Z,53.00
2018-11-02T20:45:48.828Z,52.07
2018-11-02T20:48:23.408Z,49.50
2018-11-02T20:50:51.192Z,48.97
2018-11-02T20:53:20.183Z,46.83
2018-11-02T20:55:48.819Z,43.93
2018-11-02T20:58:17.028Z,43.33
2018-11-02T21:00:46.105Z,44.10
2018-11-02T21:03:16.028Z,45.87
2018-11-02T21:05:44.501Z,43.13
2018-11-02T21:08:12.442Z,40.47
2018-11-02T21:10:41.637Z,40.83
2018-11-02T21:13:09.903Z,42.80
2018-11-02T21:15:38.844Z,46.10
2018-11-02T21:18:07.304Z,35.03
2018-11-02T21:20:35.079Z,32.23
2018-11-02T21:23:04.006Z,42.03
2018-11-02T21:25:32.354Z,57.37
2018-11-02T21:28:01.054Z,30.93
2018-11-02T21:30:29.527Z,28.97
2018-11-02T21:32:58.480Z,23.87
2018-11-02T21:35:26.780Z,19.57
2018-11-02T21:37:55.165Z,16.10
2018-11-02T21:40:24.929Z,16.80
2018-11-02T21:42:53.276Z,29.90
2018-11-02T21:45:21.625Z,28.93
2018-11-02T21:47:50.552Z,30.20
2018-11-02T21:50:18.394Z,36.07
2018-11-02T21:52:47.832Z,35.93
2018-11-02T21:55:17.402Z,36.67
2018-11-02T21:57:44.832Z,39.03
2018-11-02T22:00:13.370Z,36.80
2018-11-02T22:02:41.123Z,32.70
2018-11-02T22:05:10.038Z,28.70
2018-11-02T22:07:38.466Z,28.40
2018-11-02T22:10:07.146Z,28.57
2018-11-02T22:12:35.647Z,21.63
2018-11-02T22:15:04.003Z,29.67
2018-11-02T22:17:31.758Z,17.90
2018-11-02T22:20:00.671Z,15.93
2018-11-02T22:22:29.073Z,15.47
2018-11-02T22:24:57.398Z,15.63
2018-11-02T22:27:26.017Z,16.57
2018-11-02T22:29:54.341Z,14.83
2018-11-02T22:32:22.091Z,15.03
2018-11-02T22:34:51.357Z,13.63
2018-11-02T22:37:19.206Z,13.20
2018-11-02T22:39:48.018Z,17.00
2018-11-02T22:42:15.757Z,15.00
2018-11-02T22:44:44.086Z,15.53
2018-11-02T22:47:12.418Z,16.37
2018-11-02T22:49:41.334Z,15.10
2018-11-02T22:52:09.077Z,16.37
2018-11-02T22:54:37.414Z,14.83
2018-11-02T22:57:05.742Z,14.87
2018-11-02T22:59:34.672Z,15.10
2018-11-02T23:02:03.008Z,65.97
2018-11-02T23:04:31.341Z,19.63
2018-11-02T23:06:59.606Z,15.17
2018-11-02T23:09:28.007Z,14.30
2018-11-02T23:11:56.333Z,15.13
2018-11-02T23:14:24.113Z,16.33
2018-11-02T23:16:52.979Z,16.37
2018-11-02T23:19:20.751Z,16.53
2018-11-02T23:21:49.656Z,15.83
2018-11-02T23:24:17.391Z,13.90
2018-11-02T23:26:45.716Z,14.13
2018-11-02T23:29:14.627Z,14.97
2018-11-02T23:31:42.958Z,14.37
2018-11-02T23:34:10.702Z,14.10
2018-11-02T23:36:39.031Z,14.67
2018-11-02T23:39:08.150Z,15.07
2018-11-02T23:41:36.506Z,14.33
2018-11-02T23:44:05.900Z,14.93
2018-11-02T23:46:34.229Z,15.00
2018-11-02T23:49:02.599Z,14.63
2018-11-02T23:51:30.907Z,14.53
2018-11-02T23:53:59.238Z,13.80
2018-11-02T23:56:27.560Z,13.67
2018-11-02T23:58:55.312Z,13.47
